createdAt,value
2023-02-18T00:01:32.035Z,9.70
2023-02-18T00:04:35.055Z,9.69
2023-02-18T00:07:39.039Z,9.75
2023-02-18T00:10:44.611Z,9.72
2023-02-18T00:13:55.409Z,9.84
2023-02-18T00:16:58.390Z,9.90
2023-02-18T00:20:01.163Z,9.88
2023-02-18T00:23:04.161Z,9.83
2023-02-18T00:26:11.050Z,9.78
2023-02-18T00:29:14.925Z,9.81
2023-02-18T00:32:17.712Z,9.80
2023-02-18T00:35:20.556Z,9.73
2023-02-18T00:38:23.185Z,9.70
2023-02-18T00:41:28.384Z,9.71
2023-02-18T00:44:31.041Z,9.73
2023-02-18T00:47:34.014Z,9.64
2023-02-18T00:50:37.318Z,9.63
2023-02-18T00:53:41.114Z,9.67
2023-02-18T00:56:43.725Z,9.66
2023-02-18T00:59:46.809Z,9.54
2023-02-18T01:02:54.066Z,9.43
2023-02-18T01:05:57.821Z,9.61
2023-02-18T01:09:01.664Z,9.48
2023-02-18T01:12:05.604Z,9.47
2023-02-18T01:15:09.216Z,9.40
2023-02-18T01:18:13.679Z,9.33
2023-02-18T01:21:17.101Z,9.29
2023-02-18T01:24:20.044Z,9.09
2023-02-18T01:27:22.838Z,9.15
2023-02-18T01:30:25.850Z,9.08
2023-02-18T01:33:28.446Z,9.06
2023-02-18T01:36:31.391Z,8.97
2023-02-18T01:39:34.058Z,8.93
2023-02-18T01:42:37.172Z,8.70
2023-02-18T01:46:19.917Z,8.71
2023-02-18T01:49:30.753Z,8.61
2023-02-18T01:52:33.582Z,8.48
2023-02-18T01:55:38.354Z,8.46
2023-02-18T01:58:43.505Z,8.44
2023-02-18T02:01:47.443Z,8.47
2023-02-18T02:04:50.915Z,8.38
2023-02-18T02:07:55.162Z,8.35
2023-02-18T02:11:14.489Z,8.26
2023-02-18T02:14:38.668Z,8.28
2023-02-18T02:18:25.885Z,8.28
2023-02-18T02:21:53.515Z,8.26
2023-02-18T02:24:59.108Z,8.22
2023-02-18T02:28:30.291Z,8.27
2023-02-18T02:31:55.129Z,8.21
2023-02-18T02:35:09.910Z,8.21
2023-02-18T02:38:23.136Z,8.26
2023-02-18T02:41:51.612Z,8.25
2023-02-18T02:44:56.363Z,8.12
2023-02-18T02:48:37.181Z,8.11
2023-02-18T02:52:21.906Z,8.09
2023-02-18T02:55:24.687Z,8.08
2023-02-18T02:58:28.976Z,8.03
2023-02-18T03:01:43.906Z,7.89
2023-02-18T03:05:02.500Z,7.97
2023-02-18T03:08:13.162Z,7.86
2023-02-18T03:11:18.333Z,7.84
2023-02-18T03:14:47.945Z,7.86
2023-02-18T03:18:18.231Z,7.88
2023-02-18T03:21:32.139Z,7.86
2023-02-18T03:24:44.041Z,7.86
2023-02-18T03:27:54.632Z,7.90
2023-02-18T03:31:05.854Z,7.89
2023-02-18T03:34:13.004Z,7.92
2023-02-18T03:37:16.564Z,7.84
2023-02-18T03:40:19.923Z,7.93
2023-02-18T03:43:23.997Z,7.83
2023-02-18T03:46:31.814Z,7.92
2023-02-18T03:49:34.705Z,7.92
2023-02-18T03:52:37.481Z,7.95
2023-02-18T03:55:41.069Z,7.93
2023-02-18T03:58:43.975Z,7.90
2023-02-18T04:01:46.873Z,7.82
2023-02-18T04:04:49.746Z,7.95
2023-02-18T04:07:52.444Z,7.90
2023-02-18T04:10:56.636Z,7.98
2023-02-18T04:13:59.215Z,7.95
2023-02-18T04:17:02.295Z,7.95
2023-02-18T04:20:06.127Z,8.00
2023-02-18T04:23:10.342Z,7.99
2023-02-18T04:26:13.125Z,8.12
2023-02-18T04:29:16.041Z,8.15
2023-02-18T04:32:18.736Z,8.26
2023-02-18T04:35:21.875Z,8.38
2023-02-18T04:38:24.746Z,8.45
2023-02-18T04:41:27.625Z,8.46
2023-02-18T04:44:30.146Z,8.51
2023-02-18T04:47:33.998Z,8.42
2023-02-18T04:50:37.394Z,8.34
2023-02-18T04:53:40.591Z,8.30
2023-02-18T04:56:43.201Z,8.30
2023-02-18T04:59:46.247Z,8.27
2023-02-18T05:02:48.921Z,8.39
2023-02-18T05:05:51.834Z,8.33
2023-02-18T05:08:54.499Z,8.33
2023-02-18T05:11:57.486Z,8.25
2023-02-18T05:15:00.187Z,8.31
2023-02-18T05:18:03.126Z,8.30
2023-02-18T05:21:06.447Z,8.31
2023-02-18T05:24:09.980Z,8.34
2023-02-18T05:27:12.675Z,8.62
2023-02-18T05:30:15.845Z,8.50
2023-02-18T05:33:18.470Z,8.52
2023-02-18T05:36:22.542Z,8.36
2023-02-18T05:39:25.472Z,8.43
2023-02-18T05:42:28.424Z,8.60
2023-02-18T05:45:31.030Z,8.64
2023-02-18T05:48:33.970Z,8.59
2023-02-18T05:51:36.574Z,8.41
2023-02-18T05:54:40.270Z,8.41
2023-02-18T05:57:42.920Z,8.38
2023-02-18T06:00:45.860Z,8.34
2023-02-18T06:03:48.729Z,8.37
2023-02-18T06:06:51.374Z,8.33
2023-02-18T06:09:54.243Z,8.32
2023-02-18T06:12:56.965Z,8.21
2023-02-18T06:16:00.171Z,8.26
2023-02-18T06:19:02.840Z,8.32
2023-02-18T06:22:06.135Z,8.32
2023-02-18T06:25:08.951Z,8.21
2023-02-18T06:28:11.919Z,8.28
2023-02-18T06:31:15.001Z,8.35
2023-02-18T06:34:18.010Z,8.49
2023-02-18T06:37:20.637Z,8.47
2023-02-18T06:40:23.834Z,8.51
2023-02-18T06:43:26.409Z,8.40
2023-02-18T06:46:29.292Z,8.36
2023-02-18T06:49:32.295Z,8.47
2023-02-18T06:52:35.637Z,8.36
2023-02-18T06:55:39.186Z,8.31
2023-02-18T06:58:42.339Z,8.35
2023-02-18T07:01:45.026Z,8.25
2023-02-18T07:04:48.051Z,8.35
2023-02-18T07:07:50.645Z,8.25
2023-02-18T07:10:53.705Z,8.27
2023-02-18T07:13:56.642Z,8.17
2023-02-18T07:16:59.670Z,8.31
2023-02-18T07:20:04.604Z,8.29
2023-02-18T07:23:07.965Z,8.47
2023-02-18T07:26:13.197Z,8.55
2023-02-18T07:29:16.087Z,8.58
2023-02-18T07:32:19.890Z,8.60
2023-02-18T07:35:22.995Z,8.60
2023-02-18T07:38:27.241Z,8.57
2023-02-18T07:41:30.493Z,8.63
2023-02-18T07:44:36.318Z,8.64
2023-02-18T07:47:39.853Z,8.70
2023-02-18T07:50:45.251Z,8.89
2023-02-18T07:53:48.261Z,8.88
2023-02-18T07:56:51.857Z,8.90
2023-02-18T07:59:54.933Z,8.91
2023-02-18T08:02:57.659Z,8.95
2023-02-18T08:06:02.062Z,9.07
2023-02-18T08:09:05.350Z,9.18
2023-02-18T08:12:09.113Z,9.06
2023-02-18T08:15:11.734Z,9.28
2023-02-18T08:18:21.153Z,9.29
2023-02-18T08:21:25.585Z,9.35
2023-02-18T08:24:28.642Z,9.38
2023-02-18T08:27:31.762Z,9.54
2023-02-18T08:30:34.706Z,9.55
2023-02-18T08:33:37.471Z,9.58
2023-02-18T08:36:40.417Z,9.67
2023-02-18T08:39:43.145Z,9.75
2023-02-18T08:42:46.017Z,9.83
2023-02-18T08:45:48.788Z,9.88
2023-02-18T08:48:52.058Z,9.95
2023-02-18T08:51:54.733Z,10.04
2023-02-18T08:54:57.723Z,10.01
2023-02-18T08:58:01.419Z,10.03
2023-02-18T09:01:10.819Z,9.92
2023-02-18T09:04:13.998Z,9.91
2023-02-18T09:07:17.046Z,10.00
2023-02-18T09:10:19.947Z,10.02
2023-02-18T09:13:23.119Z,9.93
2023-02-18T09:16:27.057Z,10.14
2023-02-18T09:19:30.427Z,10.09
2023-02-18T09:22:33.317Z,10.07
2023-02-18T09:25:40.339Z,10.06
2023-02-18T09:28:43.813Z,10.10
2023-02-18T09:31:47.135Z,10.14
2023-02-18T09:34:49.843Z,10.20
2023-02-18T09:37:52.759Z,10.22
2023-02-18T09:40:58.959Z,10.32
2023-02-18T09:44:11.662Z,10.38
2023-02-18T09:47:40.311Z,10.53
2023-02-18T09:50:49.938Z,10.58
2023-02-18T09:53:52.680Z,10.74
2023-02-18T09:56:55.967Z,10.88
2023-02-18T10:00:12.917Z,11.01
2023-02-18T10:03:25.675Z,10.97
2023-02-18T10:06:33.678Z,11.10
2023-02-18T10:09:40.961Z,11.21
2023-02-18T10:12:45.322Z,11.33
2023-02-18T10:15:49.900Z,11.39
2023-02-18T10:18:59.916Z,11.29
2023-02-18T10:22:06.874Z,11.36
2023-02-18T10:25:12.858Z,11.44
2023-02-18T10:28:17.284Z,11.57
2023-02-18T10:31:38.553Z,11.81
2023-02-18T10:34:53.241Z,11.87
2023-02-18T10:38:04.587Z,12.06
2023-02-18T10:41:19.369Z,12.19
2023-02-18T10:44:33.980Z,12.20
2023-02-18T10:47:36.773Z,12.17
2023-02-18T10:50:43.046Z,12.09
2023-02-18T10:53:49.306Z,12.07
2023-02-18T10:56:58.586Z,11.94
2023-02-18T11:00:15.061Z,12.02
2023-02-18T11:03:26.361Z,12.15
2023-02-18T11:06:42.271Z,12.21
2023-02-18T11:09:56.781Z,12.25
2023-02-18T11:13:06.259Z,12.12
2023-02-18T11:16:10.892Z,12.10
2023-02-18T11:19:38.145Z,12.11
2023-02-18T11:22:41.585Z,12.02
2023-02-18T11:26:15.905Z,12.12
2023-02-18T11:29:24.336Z,12.15
2023-02-18T11:32:29.554Z,12.16
2023-02-18T11:35:33.272Z,12.07
2023-02-18T11:38:46.258Z,12.14
2023-02-18T11:41:57.599Z,12.27
2023-02-18T11:45:00.971Z,12.66
2023-02-18T11:48:15.501Z,12.85
2023-02-18T11:51:26.124Z,12.96
2023-02-18T11:54:31.590Z,12.98
2023-02-18T11:57:38.918Z,13.05
2023-02-18T12:00:45.050Z,13.17
2023-02-18T12:04:04.281Z,13.14
2023-02-18T12:07:23.990Z,13.16
2023-02-18T12:10:34.996Z,13.12
2023-02-18T12:13:53.521Z,13.24
2023-02-18T12:17:23.214Z,13.19
2023-02-18T12:20:26.097Z,13.19
2023-02-18T12:23:31.920Z,13.08
2023-02-18T12:26:40.719Z,13.03
2023-02-18T12:30:02.246Z,12.97
2023-02-18T12:33:32.354Z,13.09
2023-02-18T12:37:08.257Z,13.14
2023-02-18T12:40:49.208Z,13.00
2023-02-18T12:44:00.913Z,13.14
2023-02-18T12:47:51.521Z,13.13
2023-02-18T12:51:00.151Z,13.16
2023-02-18T12:54:23.936Z,13.15
2023-02-18T12:57:54.271Z,13.09
2023-02-18T13:01:03.716Z,13.10
2023-02-18T13:04:40.386Z,12.99
2023-02-18T13:07:54.788Z,12.95
2023-02-18T13:11:15.183Z,13.00
2023-02-18T13:14:29.636Z,13.10
2023-02-18T13:17:39.440Z,13.17
2023-02-18T13:20:51.211Z,13.13
2023-02-18T13:24:03.700Z,13.05
2023-02-18T13:27:42.130Z,13.03
2023-02-18T13:30:50.534Z,12.94
2023-02-18T13:34:08.767Z,12.92
2023-02-18T13:37:36.135Z,12.85
2023-02-18T13:40:39.962Z,12.85
2023-02-18T13:43:46.145Z,12.86
2023-02-18T13:46:58.399Z,12.88
2023-02-18T13:50:28.534Z,12.98
2023-02-18T13:53:36.062Z,13.24
2023-02-18T13:56:44.255Z,13.44
2023-02-18T14:00:00.091Z,13.51
2023-02-18T14:03:40.780Z,13.55
2023-02-18T14:07:21.913Z,13.49
2023-02-18T14:10:29.015Z,13.47
2023-02-18T14:13:55.886Z,13.46
2023-02-18T14:17:20.680Z,13.35
2023-02-18T14:20:39.789Z,13.37
2023-02-18T14:23:55.049Z,13.43
2023-02-18T14:27:15.017Z,13.45
2023-02-18T14:30:29.264Z,13.51
2023-02-18T14:33:36.329Z,13.50
2023-02-18T14:37:05.478Z,13.57
2023-02-18T14:40:26.941Z,13.55
2023-02-18T14:43:50.253Z,13.60
2023-02-18T14:47:18.450Z,13.60
2023-02-18T14:50:22.538Z,13.62
2023-02-18T14:53:27.088Z,13.53
2023-02-18T14:56:30.221Z,13.49
2023-02-18T14:59:37.560Z,13.39
2023-02-18T15:02:40.339Z,13.28
2023-02-18T15:05:44.742Z,13.13
2023-02-18T15:08:48.276Z,13.00
2023-02-18T15:12:04.705Z,12.84
2023-02-18T15:15:08.029Z,12.61
2023-02-18T15:18:28.162Z,12.61
2023-02-18T15:21:37.456Z,12.49
2023-02-18T15:24:40.541Z,12.43
2023-02-18T15:27:47.172Z,12.28
2023-02-18T15:30:51.947Z,12.11
2023-02-18T15:33:55.412Z,12.09
2023-02-18T15:37:03.675Z,11.93
2023-02-18T15:40:14.645Z,11.76
2023-02-18T15:43:23.932Z,11.66
2023-02-18T15:46:27.521Z,11.60
2023-02-18T15:49:31.422Z,11.45
2023-02-18T15:52:39.093Z,11.35
2023-02-18T15:55:46.353Z,11.21
2023-02-18T15:58:49.249Z,11.09
2023-02-18T16:01:57.287Z,10.99
2023-02-18T16:05:05.134Z,10.85
2023-02-18T16:08:14.379Z,10.74
2023-02-18T16:11:17.298Z,10.63
2023-02-18T16:14:49.931Z,10.55
2023-02-18T16:17:53.242Z,10.33
2023-02-18T16:21:02.291Z,10.36
2023-02-18T16:24:29.660Z,10.28
2023-02-18T16:27:35.779Z,10.22
2023-02-18T16:30:41.567Z,10.26
2023-02-18T16:33:44.759Z,10.16
2023-02-18T16:37:06.699Z,10.04
2023-02-18T16:40:23.623Z,9.96
2023-02-18T16:43:33.285Z,9.87
2023-02-18T16:46:36.854Z,9.60
2023-02-18T16:49:41.180Z,9.72
2023-02-18T16:52:43.911Z,9.64
2023-02-18T16:55:50.162Z,9.50
2023-02-18T16:58:53.089Z,9.42
2023-02-18T17:01:56.211Z,9.51
2023-02-18T17:04:59.481Z,9.47
2023-02-18T17:08:14.675Z,9.42
2023-02-18T17:11:36.044Z,9.37
2023-02-18T17:14:39.215Z,9.31
2023-02-18T17:17:42.338Z,9.24
2023-02-18T17:20:48.507Z,9.20
2023-02-18T17:23:52.288Z,9.21
2023-02-18T17:26:55.559Z,9.19
2023-02-18T17:29:58.101Z,9.05
2023-02-18T17:33:03.284Z,9.00
2023-02-18T17:36:06.658Z,8.80
2023-02-18T17:39:14.378Z,8.85
2023-02-18T17:42:17.117Z,8.84
2023-02-18T17:45:33.001Z,8.72
2023-02-18T17:48:35.619Z,8.77
2023-02-18T17:51:39.412Z,8.74
2023-02-18T17:54:42.075Z,8.71
2023-02-18T17:57:45.344Z,8.61
2023-02-18T18:00:54.978Z,8.55
2023-02-18T18:03:58.796Z,8.55
2023-02-18T18:07:01.609Z,8.48
2023-02-18T18:10:05.512Z,8.50
2023-02-18T18:13:15.033Z,8.39
2023-02-18T18:16:19.151Z,8.26
2023-02-18T18:19:22.070Z,8.31
2023-02-18T18:22:24.945Z,8.16
2023-02-18T18:25:31.111Z,7.99
2023-02-18T18:28:36.094Z,7.88
2023-02-18T18:31:40.829Z,7.81
2023-02-18T18:34:44.281Z,7.76
2023-02-18T18:37:47.562Z,7.65
2023-02-18T18:40:51.736Z,7.68
2023-02-18T18:43:54.622Z,7.52
2023-02-18T18:46:58.301Z,7.53
2023-02-18T18:50:01.241Z,7.48
2023-02-18T18:53:06.282Z,7.42
2023-02-18T18:56:11.731Z,7.39
2023-02-18T18:59:15.184Z,7.31
2023-02-18T19:02:19.812Z,7.39
2023-02-18T19:05:31.395Z,7.20
2023-02-18T19:08:34.322Z,7.09
2023-02-18T19:11:37.341Z,6.97
2023-02-18T19:14:40.202Z,7.00
2023-02-18T19:17:49.063Z,6.88
2023-02-18T19:20:51.948Z,6.91
2023-02-18T19:23:55.907Z,6.86
2023-02-18T19:26:58.627Z,6.85
2023-02-18T19:30:02.018Z,6.82
2023-02-18T19:33:06.036Z,6.72
2023-02-18T19:36:11.262Z,6.68
2023-02-18T19:39:14.088Z,6.63
2023-02-18T19:42:17.754Z,6.62
2023-02-18T19:45:21.562Z,6.53
2023-02-18T19:48:24.855Z,6.52
2023-02-18T19:51:27.921Z,6.42
2023-02-18T19:54:32.440Z,6.46
2023-02-18T19:57:35.287Z,6.36
2023-02-18T20:00:40.568Z,6.17
2023-02-18T20:03:44.174Z,5.97
2023-02-18T20:06:47.007Z,6.04
2023-02-18T20:09:53.745Z,6.28
2023-02-18T20:12:56.613Z,6.30
2023-02-18T20:15:59.806Z,6.28
2023-02-18T20:19:04.163Z,6.31
2023-02-18T20:22:10.272Z,6.38
2023-02-18T20:25:13.322Z,6.24
2023-02-18T20:28:16.579Z,6.22
2023-02-18T20:31:19.598Z,6.21
2023-02-18T20:34:22.992Z,6.16
2023-02-18T20:37:25.993Z,6.28
2023-02-18T20:40:29.251Z,6.36
2023-02-18T20:43:33.062Z,6.45
2023-02-18T20:46:37.638Z,6.47
2023-02-18T20:49:41.053Z,6.48
2023-02-18T20:52:44.247Z,6.49
2023-02-18T20:55:48.018Z,6.45
2023-02-18T20:58:52.017Z,6.31
2023-02-18T21:01:54.937Z,6.46
2023-02-18T21:04:57.883Z,6.38
2023-02-18T21:08:00.534Z,6.42
2023-02-18T21:11:05.665Z,6.38
2023-02-18T21:14:08.719Z,6.38
2023-02-18T21:17:11.984Z,6.28
2023-02-18T21:20:14.907Z,6.43
2023-02-18T21:23:18.052Z,6.42
2023-02-18T21:26:24.626Z,6.56
2023-02-18T21:29:27.948Z,6.33
2023-02-18T21:32:31.005Z,6.35
2023-02-18T21:35:39.778Z,6.52
2023-02-18T21:38:44.700Z,6.49
2023-02-18T21:41:47.787Z,6.42
2023-02-18T21:44:50.642Z,6.22
2023-02-18T21:47:54.103Z,6.24
2023-02-18T21:51:01.553Z,6.29
2023-02-18T21:54:04.761Z,6.10
2023-02-18T21:57:11.930Z,6.05
2023-02-18T22:00:20.668Z,6.12
2023-02-18T22:03:24.437Z,5.91
2023-02-18T22:06:27.382Z,6.25
2023-02-18T22:09:30.501Z,6.11
2023-02-18T22:12:34.068Z,6.66
2023-02-18T22:15:36.910Z,6.74
2023-02-18T22:18:39.551Z,7.12
2023-02-18T22:21:42.679Z,6.98
2023-02-18T22:24:45.320Z,7.12
2023-02-18T22:27:48.276Z,7.26
2023-02-18T22:30:51.225Z,7.33
2023-02-18T22:33:55.470Z,7.28
2023-02-18T22:36:58.293Z,7.16
2023-02-18T22:40:01.166Z,7.08
2023-02-18T22:43:03.776Z,7.22
2023-02-18T22:46:17.603Z,7.06
2023-02-18T22:49:20.286Z,7.21
2023-02-18T22:52:23.348Z,7.07
2023-02-18T22:55:25.992Z,7.25
2023-02-18T22:58:29.044Z,7.04
2023-02-18T23:01:34.559Z,7.39
2023-02-18T23:04:39.191Z,7.31
2023-02-18T23:07:41.784Z,7.54
2023-02-18T23:10:44.889Z,7.59
2023-02-18T23:14:08.438Z,7.48
2023-02-18T23:17:14.325Z,7.44
2023-02-18T23:20:37.308Z,7.47
2023-02-18T23:23:40.192Z,7.31
2023-02-18T23:26:43.123Z,7.33
2023-02-18T23:29:46.155Z,7.27
2023-02-18T23:32:48.825Z,7.25
2023-02-18T23:35:51.687Z,7.23
2023-02-18T23:38:59.531Z,7.10
2023-02-18T23:42:03.176Z,7.12
2023-02-18T23:45:05.922Z,7.09
2023-02-18T23:48:08.855Z,7.06
2023-02-18T23:51:17.749Z,7.04
2023-02-18T23:54:21.304Z,7.00
2023-02-18T23:57:23.928Z,6.95
